Time;durP1;ratioP1;P1;durP2;ratioP2;P2;SDS_P1;SDS_P2;PMS_P1;PMS_P2;Temp;Humidity;BMP_temperature;BMP_pressure;BME280_temperature;BME280_humidity;BME280_pressure;Samples;Min_cycle;Max_cycle;Signal;HPM_P1;HPM_P2
2022/03/14 00:00:35;;;;;;;18.35;9.40;;;13.10;68.60;;;;;;5112170;28;20108;-61
2022/03/14 00:03:02;;;;;;;15.90;8.93;;;13.10;68.30;;;;;;5109624;28;20077;-60
2022/03/14 00:05:31;;;;;;;22.00;9.95;;;13.10;68.60;;;;;;5105377;27;20130;-61
2022/03/14 00:07:59;;;;;;;15.50;9.23;;;13.10;69.00;;;;;;5074236;28;20177;-61
2022/03/14 00:10:24;;;;;;;13.30;8.23;;;13.10;69.00;;;;;;5071884;28;20390;-61
2022/03/14 00:12:55;;;;;;;21.05;9.18;;;13.10;69.40;;;;;;5095888;28;20044;-61
2022/03/14 00:15:21;;;;;;;12.98;8.70;;;13.10;69.30;;;;;;5104737;28;20024;-61
2022/03/14 00:17:47;;;;;;;16.10;9.20;;;13.10;69.70;;;;;;5096130;28;20122;-60
2022/03/14 00:20:13;;;;;;;16.42;8.48;;;13.10;69.60;;;;;;5109646;27;20046;-60
2022/03/14 00:22:40;;;;;;;16.10;8.80;;;13.10;69.80;;;;;;5088719;28;20428;-61
2022/03/14 00:25:06;;;;;;;14.27;8.35;;;13.10;69.70;;;;;;5100608;28;20522;-61
2022/03/14 00:27:32;;;;;;;13.32;9.23;;;13.00;70.00;;;;;;5076680;28;20058;-60
2022/03/14 00:29:57;;;;;;;12.80;8.32;;;13.00;69.90;;;;;;5106753;28;20082;-60
2022/03/14 00:32:24;;;;;;;13.32;8.20;;;13.00;70.10;;;;;;5093621;28;20454;-61
2022/03/14 00:34:49;;;;;;;12.27;8.45;;;13.10;70.20;;;;;;5104436;28;20035;-61
2022/03/14 00:37:15;;;;;;;13.60;8.35;;;13.00;70.10;;;;;;5089354;28;20043;-60
2022/03/14 00:39:41;;;;;;;13.20;8.30;;;13.00;70.00;;;;;;5108924;28;20027;-60
2022/03/14 00:42:06;;;;;;;17.92;8.05;;;13.00;70.00;;;;;;5109522;28;20395;-61
2022/03/14 00:44:32;;;;;;;11.75;7.72;;;13.00;70.10;;;;;;5097422;28;20047;-60
2022/03/14 00:46:58;;;;;;;11.85;7.70;;;13.00;70.30;;;;;;5101077;28;20376;-61
2022/03/14 00:49:23;;;;;;;18.88;8.27;;;13.00;70.20;;;;;;5098824;28;20035;-61
2022/03/14 00:51:49;;;;;;;10.05;7.95;;;13.00;70.60;;;;;;5105216;28;20047;-60
2022/03/14 00:54:15;;;;;;;10.27;7.35;;;13.00;70.90;;;;;;5102495;28;20020;-61
2022/03/14 00:56:40;;;;;;;12.02;7.38;;;13.00;71.10;;;;;;5106407;28;20028;-60
2022/03/14 00:59:06;;;;;;;12.25;7.35;;;13.00;71.30;;;;;;5107035;28;20103;-61
2022/03/14 01:01:31;;;;;;;14.02;7.20;;;12.90;71.30;;;;;;5097530;28;20076;-61
2022/03/14 01:03:58;;;;;;;9.20;6.97;;;12.90;71.20;;;;;;5101992;28;20432;-61
2022/03/14 01:06:24;;;;;;;8.90;6.63;;;12.90;71.50;;;;;;5105457;28;20487;-61
2022/03/14 01:08:49;;;;;;;11.32;6.00;;;12.90;71.50;;;;;;5107261;28;20037;-61
2022/03/14 01:11:15;;;;;;;9.65;6.10;;;12.90;71.40;;;;;;5107978;28;20261;-61
2022/03/14 01:13:40;;;;;;;12.75;5.90;;;12.90;71.60;;;;;;5107696;28;20428;-61
2022/03/14 01:16:06;;;;;;;8.05;5.30;;;12.90;71.60;;;;;;5109151;28;20150;-61
2022/03/14 01:18:32;;;;;;;10.02;5.97;;;12.90;71.70;;;;;;5098694;28;20023;-60
2022/03/14 01:20:57;;;;;;;10.07;5.68;;;12.90;71.60;;;;;;5106694;28;20088;-61
2022/03/14 01:23:23;;;;;;;7.55;5.28;;;12.90;71.80;;;;;;5107465;28;20035;-60
2022/03/14 01:25:49;;;;;;;10.63;5.38;;;12.90;71.80;;;;;;5097773;28;20079;-61
2022/03/14 01:28:15;;;;;;;8.65;5.13;;;12.80;72.00;;;;;;5109117;28;20059;-60
2022/03/14 01:30:42;;;;;;;9.45;5.03;;;12.80;72.10;;;;;;5108308;28;20043;-60
2022/03/14 01:33:08;;;;;;;5.82;4.30;;;12.80;72.20;;;;;;5108254;28;20546;-60
2022/03/14 01:35:34;;;;;;;6.55;4.97;;;12.80;72.20;;;;;;5108371;28;20110;-61
2022/03/14 01:37:59;;;;;;;5.95;4.30;;;12.80;72.50;;;;;;5097883;28;20161;-61
2022/03/14 01:40:25;;;;;;;9.30;4.07;;;12.80;72.60;;;;;;5102922;28;20107;-60
2022/03/14 01:42:50;;;;;;;5.43;3.78;;;12.70;72.70;;;;;;5106327;28;20016;-60
2022/03/14 01:45:18;;;;;;;5.85;3.70;;;12.60;72.70;;;;;;5091275;28;20060;-60
2022/03/14 01:47:44;;;;;;;8.63;3.90;;;12.60;72.90;;;;;;5107712;28;20027;-60
2022/03/14 01:50:10;;;;;;;6.28;3.97;;;12.60;72.90;;;;;;5088995;28;20032;-60
2022/03/14 01:52:35;;;;;;;6.82;3.50;;;12.60;73.70;;;;;;5086589;28;20505;-60
2022/03/14 01:55:02;;;;;;;6.15;3.63;;;12.60;73.10;;;;;;5101929;28;20031;-60
2022/03/14 01:57:28;;;;;;;8.48;3.20;;;12.60;73.20;;;;;;5106623;28;20036;-60
2022/03/14 01:59:54;;;;;;;3.63;2.85;;;12.60;73.40;;;;;;5090685;28;20106;-61
2022/03/14 02:02:20;;;;;;;4.85;2.97;;;12.50;73.50;;;;;;5106124;28;20031;-60
2022/03/14 02:04:46;;;;;;;4.72;2.70;;;12.50;73.70;;;;;;5100421;28;20416;-60
2022/03/14 02:07:11;;;;;;;5.43;2.95;;;12.40;73.70;;;;;;5104765;28;20023;-59
2022/03/14 02:09:37;;;;;;;4.35;2.78;;;12.40;73.80;;;;;;5088203;28;20387;-59
2022/03/14 02:12:02;;;;;;;2.90;2.30;;;12.40;73.90;;;;;;5100414;28;20380;-59
2022/03/14 02:14:28;;;;;;;3.85;2.85;;;12.40;74.00;;;;;;5104943;28;20031;-59
2022/03/14 02:16:54;;;;;;;3.15;2.38;;;12.40;74.20;;;;;;5107377;28;20032;-60
2022/03/14 02:19:20;;;;;;;2.47;1.88;;;12.40;74.20;;;;;;5106967;28;20478;-60
2022/03/14 02:21:46;;;;;;;3.45;2.47;;;12.30;74.30;;;;;;5098205;28;20027;-60
2022/03/14 02:24:11;;;;;;;6.63;2.38;;;12.30;74.30;;;;;;5107287;28;20401;-60
2022/03/14 02:26:39;;;;;;;3.17;2.30;;;12.30;74.50;;;;;;5108055;28;20511;-60
2022/03/14 02:29:05;;;;;;;3.28;2.08;;;12.30;74.60;;;;;;5103159;28;20134;-60
2022/03/14 02:31:30;;;;;;;2.75;2.33;;;12.30;74.60;;;;;;5098802;28;20138;-60
2022/03/14 02:33:56;;;;;;;3.13;2.15;;;12.30;74.70;;;;;;5100865;28;20135;-60
2022/03/14 02:36:21;;;;;;;3.97;1.77;;;12.20;74.80;;;;;;5091416;28;20024;-59
2022/03/14 02:38:47;;;;;;;2.50;1.80;;;12.20;74.80;;;;;;5096687;28;20298;-59
2022/03/14 02:41:12;;;;;;;6.57;1.95;;;12.10;74.80;;;;;;5126669;27;20494;-59
2022/03/14 02:43:38;;;;;;;2.03;1.83;;;12.10;75.00;;;;;;5121794;27;20044;-59
2022/03/14 02:46:03;;;;;;;3.20;1.98;;;12.10;74.90;;;;;;5114648;27;20031;-60
2022/03/14 02:48:30;;;;;;;2.92;1.73;;;12.10;75.00;;;;;;5126501;27;20415;-60
2022/03/14 02:50:56;;;;;;;1.50;1.40;;;12.10;75.10;;;;;;5127885;27;20020;-59
2022/03/14 02:53:21;;;;;;;1.92;1.70;;;12.00;75.10;;;;;;5107991;28;20023;-59
2022/03/14 02:55:47;;;;;;;1.73;1.48;;;12.10;75.10;;;;;;5118965;28;20119;-60
2022/03/14 02:58:12;;;;;;;3.67;1.55;;;12.10;75.10;;;;;;5125512;28;20526;-60
2022/03/14 03:00:38;;;;;;;1.70;1.50;;;12.00;75.10;;;;;;5131232;27;20035;-59
2022/03/14 03:03:06;;;;;;;1.67;1.20;;;12.00;75.20;;;;;;5131707;27;20027;-59
2022/03/14 03:05:32;;;;;;;1.92;1.40;;;12.00;75.20;;;;;;5114316;27;20038;-59
2022/03/14 03:08:03;;;;;;;4.22;1.45;;;12.00;75.30;;;;;;5094199;27;20564;-60
2022/03/14 03:10:28;;;;;;;2.35;1.30;;;12.00;75.30;;;;;;5113664;27;20618;-60
2022/03/14 03:12:54;;;;;;;2.22;1.58;;;12.00;75.30;;;;;;5111354;27;20455;-60
2022/03/14 03:15:20;;;;;;;3.15;1.48;;;11.90;75.20;;;;;;5114969;27;20100;-60
2022/03/14 03:17:45;;;;;;;1.67;1.40;;;11.90;75.20;;;;;;5132649;27;20068;-60
2022/03/14 03:20:11;;;;;;;1.38;1.05;;;11.90;75.30;;;;;;5111629;27;20102;-60
2022/03/14 03:22:38;;;;;;;2.00;1.30;;;11.90;75.30;;;;;;5110477;27;20673;-60
2022/03/14 03:25:05;;;;;;;3.08;1.42;;;11.90;75.20;;;;;;5123344;27;20306;-60
2022/03/14 03:27:31;;;;;;;1.75;1.48;;;11.90;75.20;;;;;;5112816;27;20381;-59
2022/03/14 03:29:57;;;;;;;1.15;1.05;;;11.90;75.10;;;;;;5132395;27;20082;-59
2022/03/14 03:32:23;;;;;;;1.80;1.10;;;11.80;75.10;;;;;;5112914;27;20043;-60
2022/03/14 03:34:48;;;;;;;1.48;1.20;;;11.80;75.10;;;;;;5130473;27;20044;-60
2022/03/14 03:37:14;;;;;;;1.20;0.95;;;11.80;75.10;;;;;;5118152;27;20051;-60
2022/03/14 03:39:39;;;;;;;2.78;1.48;;;11.80;75.10;;;;;;5109349;27;20035;-58
2022/03/14 03:42:05;;;;;;;1.52;1.08;;;11.80;75.20;;;;;;5132495;27;20076;-59
2022/03/14 03:44:31;;;;;;;1.15;1.05;;;11.80;75.10;;;;;;5112222;27;20239;-60
2022/03/14 03:46:57;;;;;;;1.35;1.10;;;11.80;75.00;;;;;;5109426;27;20448;-59
2022/03/14 03:49:22;;;;;;;2.53;1.13;;;11.80;75.00;;;;;;5130964;27;20425;-60
2022/03/14 03:51:48;;;;;;;2.85;1.35;;;11.80;75.10;;;;;;5127618;27;20118;-60
2022/03/14 03:54:13;;;;;;;3.08;1.20;;;11.80;75.10;;;;;;5130096;27;20035;-60
2022/03/14 03:56:39;;;;;;;1.08;0.85;;;11.80;75.20;;;;;;5132476;27;20023;-60
2022/03/14 03:59:05;;;;;;;1.48;0.88;;;11.70;75.20;;;;;;5129007;27;20050;-60
2022/03/14 04:01:31;;;;;;;1.75;0.90;;;11.70;75.20;;;;;;5130128;27;20019;-59
2022/03/14 04:03:58;;;;;;;1.35;1.05;;;11.70;75.30;;;;;;5129897;27;20021;-60
2022/03/14 04:06:28;;;;;;;2.08;0.95;;;11.70;75.40;;;;;;5111916;27;20007;-59
2022/03/14 04:08:54;;;;;;;1.30;0.90;;;11.60;75.40;;;;;;5131256;27;20026;-60
2022/03/14 04:11:20;;;;;;;1.17;0.80;;;11.60;75.40;;;;;;5117319;27;20020;-60
2022/03/14 04:13:46;;;;;;;1.00;0.90;;;11.60;75.50;;;;;;5114261;27;20065;-60
2022/03/14 04:16:17;;;;;;;1.05;0.88;;;11.60;75.50;;;;;;5130054;27;20117;-60
2022/03/14 04:18:43;;;;;;;0.70;0.70;;;11.60;75.60;;;;;;5128762;27;20535;-59
2022/03/14 04:21:08;;;;;;;1.52;0.88;;;11.50;75.50;;;;;;5131112;27;20050;-60
2022/03/14 04:23:34;;;;;;;0.60;0.60;;;11.50;75.50;;;;;;5130359;27;20051;-60
2022/03/14 04:25:59;;;;;;;1.83;1.15;;;11.50;75.60;;;;;;5109852;27;20205;-60
2022/03/14 04:28:25;;;;;;;1.02;0.82;;;11.60;75.80;;;;;;5119977;27;20031;-60
2022/03/14 04:30:51;;;;;;;1.00;0.90;;;11.50;75.70;;;;;;5106162;27;20126;-59
2022/03/14 04:33:16;;;;;;;1.88;1.10;;;11.50;75.70;;;;;;5131504;27;20027;-60
2022/03/14 04:35:42;;;;;;;0.70;0.70;;;11.50;75.70;;;;;;5112643;27;20042;-60
2022/03/14 04:38:11;;;;;;;0.90;0.60;;;11.40;75.80;;;;;;5127667;27;20462;-60
2022/03/14 04:40:36;;;;;;;0.95;0.82;;;11.40;75.80;;;;;;5111061;27;20053;-60
2022/03/14 04:43:06;;;;;;;0.85;0.70;;;11.40;75.90;;;;;;5128209;27;20330;-60
2022/03/14 04:45:32;;;;;;;0.93;0.60;;;11.40;75.90;;;;;;5112282;27;20020;-60
2022/03/14 04:47:59;;;;;;;0.75;0.75;;;11.40;75.90;;;;;;5103502;27;20072;-59
2022/03/14 04:50:25;;;;;;;1.17;0.95;;;11.40;75.90;;;;;;5130381;27;20659;-60
2022/03/14 04:52:50;;;;;;;1.27;0.70;;;11.40;76.00;;;;;;5126672;27;20297;-59
2022/03/14 04:55:16;;;;;;;0.70;0.60;;;11.30;75.90;;;;;;5111025;27;20096;-60
2022/03/14 04:57:41;;;;;;;1.02;0.70;;;11.30;76.00;;;;;;5109954;27;20135;-59
2022/03/14 05:00:08;;;;;;;1.60;0.80;;;11.30;76.00;;;;;;5112817;27;20466;-59
2022/03/14 05:02:34;;;;;;;1.67;0.95;;;11.30;76.00;;;;;;5120298;27;20043;-60
2022/03/14 05:04:59;;;;;;;2.53;0.80;;;11.30;76.10;;;;;;5110678;27;20416;-60
2022/03/14 05:07:25;;;;;;;2.28;0.88;;;11.30;76.10;;;;;;5089146;27;20130;-60
2022/03/14 05:09:50;;;;;;;1.38;0.80;;;11.30;76.00;;;;;;5110478;27;20138;-59
2022/03/14 05:12:16;;;;;;;3.58;0.80;;;11.20;76.00;;;;;;5130067;27;20031;-59
2022/03/14 05:14:42;;;;;;;3.78;0.80;;;11.30;76.10;;;;;;5129919;27;20332;-59
2022/03/14 05:17:10;;;;;;;1.48;0.70;;;11.20;76.00;;;;;;5128865;27;20019;-60
2022/03/14 05:19:36;;;;;;;2.72;0.50;;;11.20;76.00;;;;;;5127888;27;20046;-59
2022/03/14 05:22:01;;;;;;;1.58;0.82;;;11.20;76.10;;;;;;5109279;27;20023;-59
2022/03/14 05:24:27;;;;;;;1.98;0.43;;;11.20;76.10;;;;;;5128338;27;20035;-59
2022/03/14 05:26:55;;;;;;;2.38;0.60;;;11.20;76.20;;;;;;5126994;27;20052;-60
2022/03/14 05:29:21;;;;;;;1.30;0.60;;;11.10;76.80;;;;;;5097065;27;20038;-59
2022/03/14 05:31:46;;;;;;;2.35;0.85;;;11.10;76.10;;;;;;5122083;27;20036;-61
2022/03/14 05:34:12;;;;;;;2.85;0.73;;;11.10;76.20;;;;;;5119856;27;20043;-59
2022/03/14 05:36:37;;;;;;;4.10;0.60;;;11.10;76.20;;;;;;5119876;27;20031;-59
2022/03/14 05:39:04;;;;;;;0.98;0.65;;;11.00;76.20;;;;;;5104656;27;20099;-60
2022/03/14 05:41:29;;;;;;;3.50;0.57;;;11.10;77.00;;;;;;5107109;27;20114;-60
2022/03/14 05:43:55;;;;;;;2.97;0.88;;;11.00;76.30;;;;;;5116027;27;20119;-59
2022/03/14 05:46:20;;;;;;;1.90;0.80;;;11.10;76.30;;;;;;5119581;27;20109;-59
2022/03/14 05:48:46;;;;;;;1.88;0.70;;;11.00;76.30;;;;;;5104654;27;20351;-60
2022/03/14 05:51:12;;;;;;;0.47;0.47;;;11.00;76.30;;;;;;5124887;27;20027;-59
2022/03/14 05:53:37;;;;;;;1.90;0.82;;;11.00;76.40;;;;;;5120048;27;20035;-59
2022/03/14 05:56:03;;;;;;;3.55;0.90;;;11.00;76.40;;;;;;5087154;28;20039;-60
2022/03/14 05:58:29;;;;;;;2.28;0.88;;;11.00;76.60;;;;;;5082018;27;20502;-60
2022/03/14 06:00:54;;;;;;;4.85;0.68;;;10.90;76.60;;;;;;5096617;27;20031;-59
2022/03/14 06:03:20;;;;;;;1.60;0.70;;;10.90;76.60;;;;;;5105344;27;21128;-60
2022/03/14 06:05:48;;;;;;;3.17;0.60;;;10.90;76.70;;;;;;5128867;27;20027;-60
2022/03/14 06:08:14;;;;;;;4.07;0.90;;;10.90;76.80;;;;;;5109256;27;20032;-60
2022/03/14 06:10:39;;;;;;;4.03;1.00;;;10.90;76.80;;;;;;5126995;27;20038;-59
2022/03/14 06:13:05;;;;;;;2.55;0.80;;;10.90;76.80;;;;;;5123177;27;20035;-59
2022/03/14 06:15:30;;;;;;;4.95;1.02;;;10.90;76.80;;;;;;5121734;27;20447;-59
2022/03/14 06:17:56;;;;;;;2.88;0.60;;;10.90;76.80;;;;;;5105914;28;20023;-60
2022/03/14 06:20:22;;;;;;;1.58;0.70;;;10.90;76.80;;;;;;5109610;27;20080;-59
2022/03/14 06:22:47;;;;;;;2.25;0.88;;;10.90;76.90;;;;;;5101738;27;20080;-60
2022/03/14 06:25:13;;;;;;;3.78;0.80;;;10.90;77.50;;;;;;5101682;28;20031;-60
2022/03/14 06:27:39;;;;;;;5.25;0.90;;;10.80;77.40;;;;;;5097255;28;20030;-60
2022/03/14 06:30:05;;;;;;;1.20;0.77;;;10.80;76.80;;;;;;5118657;27;20047;-59
2022/03/14 06:32:38;;;;;;;1.13;0.60;;;10.80;76.80;;;;;;5085814;27;20330;-60
2022/03/14 06:35:05;;;;;;;5.03;0.60;;;10.80;76.80;;;;;;5120198;27;20034;-59
2022/03/14 06:37:30;;;;;;;3.80;0.73;;;10.80;76.90;;;;;;5086192;28;20117;-60
2022/03/14 06:39:56;;;;;;;1.63;0.80;;;10.80;76.90;;;;;;5083325;28;20028;-60
2022/03/14 06:42:22;;;;;;;3.55;0.93;;;10.80;76.80;;;;;;5121438;27;20506;-60
2022/03/14 06:44:50;;;;;;;3.53;0.90;;;10.80;76.90;;;;;;5115989;27;20505;-60
2022/03/14 06:47:17;;;;;;;1.67;1.02;;;10.80;76.90;;;;;;5092708;28;20110;-60
2022/03/14 06:49:44;;;;;;;2.55;0.70;;;10.70;76.90;;;;;;5095863;27;20050;-59
2022/03/14 06:52:10;;;;;;;2.65;1.02;;;10.70;76.90;;;;;;5109742;27;20035;-59
2022/03/14 06:54:36;;;;;;;1.65;0.90;;;10.70;77.00;;;;;;5105392;28;20109;-60
2022/03/14 06:57:02;;;;;;;1.08;0.77;;;10.70;77.00;;;;;;5104148;28;20039;-60
2022/03/14 06:59:28;;;;;;;0.88;0.70;;;10.70;77.00;;;;;;5117076;27;20174;-60
2022/03/14 07:01:53;;;;;;;1.17;0.93;;;10.70;77.00;;;;;;5120651;28;20332;-60
2022/03/14 07:04:19;;;;;;;2.80;1.30;;;10.70;77.00;;;;;;5123620;28;20510;-60
2022/03/14 07:06:45;;;;;;;1.98;0.88;;;10.70;77.00;;;;;;5122300;27;20026;-60
2022/03/14 07:09:11;;;;;;;1.55;0.90;;;10.70;77.00;;;;;;5120902;27;20026;-59
2022/03/14 07:11:36;;;;;;;1.75;0.90;;;10.70;76.90;;;;;;5119374;28;20102;-59
2022/03/14 07:14:02;;;;;;;2.00;1.00;;;10.70;77.00;;;;;;5078802;28;20411;-59
2022/03/14 07:16:28;;;;;;;2.65;1.13;;;10.70;77.00;;;;;;5118738;28;20047;-59
2022/03/14 07:18:53;;;;;;;1.83;0.90;;;10.60;77.00;;;;;;5122425;28;20031;-59
2022/03/14 07:21:19;;;;;;;1.48;0.80;;;10.60;77.00;;;;;;5099914;28;20031;-59
2022/03/14 07:23:44;;;;;;;3.10;0.80;;;10.60;77.10;;;;;;5118055;28;20394;-59
2022/03/14 07:26:11;;;;;;;2.55;0.90;;;10.60;77.10;;;;;;5105002;28;20175;-60
2022/03/14 07:28:36;;;;;;;1.90;0.95;;;10.60;77.00;;;;;;5119765;28;20022;-59
2022/03/14 07:31:02;;;;;;;2.75;1.10;;;10.60;77.10;;;;;;5105393;28;20122;-60
2022/03/14 07:33:28;;;;;;;5.53;0.95;;;10.60;77.10;;;;;;5118238;28;20067;-60
2022/03/14 07:35:54;;;;;;;3.60;0.80;;;10.60;77.10;;;;;;5096543;28;20390;-60
2022/03/14 07:38:20;;;;;;;3.15;0.70;;;10.60;77.20;;;;;;5116891;28;20084;-60
2022/03/14 07:40:45;;;;;;;3.97;0.93;;;10.60;77.20;;;;;;5098476;28;20416;-60
2022/03/14 07:43:11;;;;;;;5.00;1.30;;;10.60;77.10;;;;;;5105170;28;20536;-59
2022/03/14 07:45:37;;;;;;;2.80;0.93;;;10.70;77.30;;;;;;5113733;27;20031;-60
2022/03/14 07:48:03;;;;;;;4.82;1.30;;;10.50;77.30;;;;;;5099312;28;20032;-59
2022/03/14 07:50:29;;;;;;;8.63;1.33;;;10.70;77.40;;;;;;5092829;27;20030;-60
2022/03/14 07:52:55;;;;;;;13.95;1.77;;;10.60;77.40;;;;;;5095105;28;20038;-59
2022/03/14 07:55:21;;;;;;;6.13;1.20;;;10.70;77.60;;;;;;5109800;27;20008;-60
2022/03/14 07:57:46;;;;;;;7.28;1.38;;;10.60;77.70;;;;;;5088370;28;20032;-60
2022/03/14 08:00:18;;;;;;;6.85;1.40;;;10.70;77.70;;;;;;5110026;27;20031;-59
2022/03/14 08:02:44;;;;;;;5.22;1.30;;;10.60;77.70;;;;;;5129139;27;20043;-60
2022/03/14 08:05:10;;;;;;;7.90;1.67;;;10.60;77.60;;;;;;5089954;27;20019;-60
2022/03/14 08:07:37;;;;;;;10.23;1.70;;;10.60;77.70;;;;;;5102591;27;20027;-60
2022/03/14 08:10:04;;;;;;;9.35;2.28;;;10.60;77.70;;;;;;5109433;27;20395;-60
2022/03/14 08:12:30;;;;;;;7.20;1.90;;;10.60;77.80;;;;;;5093374;28;20035;-59
2022/03/14 08:14:55;;;;;;;11.43;1.80;;;10.60;77.80;;;;;;5101373;27;20027;-61
2022/03/14 08:17:21;;;;;;;10.65;2.15;;;10.60;77.80;;;;;;5120086;27;20321;-60
2022/03/14 08:19:47;;;;;;;11.52;2.50;;;10.60;77.70;;;;;;5120662;27;20647;-60
2022/03/14 08:22:12;;;;;;;27.42;2.97;;;10.60;77.70;;;;;;5107221;27;20027;-59
2022/03/14 08:24:38;;;;;;;25.52;3.50;;;10.60;77.80;;;;;;5098628;27;20106;-60
2022/03/14 08:27:03;;;;;;;13.90;2.65;;;10.60;77.70;;;;;;5118128;27;20069;-60
2022/03/14 08:29:29;;;;;;;36.83;4.57;;;10.60;77.70;;;;;;5116275;27;20102;-60
2022/03/14 08:31:57;;;;;;;63.42;6.35;;;10.60;77.70;;;;;;5082058;28;20036;-60
2022/03/14 08:34:23;;;;;;;45.58;5.00;;;10.60;77.60;;;;;;5101295;27;20031;-60
2022/03/14 08:36:48;;;;;;;46.95;5.18;;;10.60;77.60;;;;;;5078534;28;20115;-60
2022/03/14 08:39:14;;;;;;;25.20;3.50;;;10.60;77.70;;;;;;5117025;27;20027;-60
2022/03/14 08:41:40;;;;;;;45.78;5.70;;;10.60;77.70;;;;;;5122361;27;20031;-61
2022/03/14 08:44:06;;;;;;;50.67;5.55;;;10.60;77.70;;;;;;5120454;27;20011;-60
2022/03/14 08:46:32;;;;;;;31.70;3.90;;;10.60;77.70;;;;;;5094769;27;20892;-59
2022/03/14 08:48:57;;;;;;;27.20;4.00;;;10.60;77.70;;;;;;5105098;27;20502;-60
2022/03/14 08:51:24;;;;;;;34.75;4.90;;;10.70;77.80;;;;;;5097444;28;20026;-60
2022/03/14 08:53:49;;;;;;;42.15;5.32;;;10.70;77.70;;;;;;5085472;28;20467;-60
2022/03/14 08:56:15;;;;;;;41.42;4.40;;;10.70;77.60;;;;;;5102918;27;20039;-60
2022/03/14 08:58:40;;;;;;;33.08;4.55;;;10.70;77.50;;;;;;5103602;27;20127;-60
2022/03/14 09:01:07;;;;;;;33.10;4.15;;;10.70;77.60;;;;;;5099572;27;20038;-60
2022/03/14 09:03:32;;;;;;;33.08;4.68;;;10.70;77.60;;;;;;5132011;27;20018;-60
2022/03/14 09:05:58;;;;;;;32.17;5.00;;;10.70;77.60;;;;;;5106147;27;20053;-60
2022/03/14 09:08:24;;;;;;;43.83;4.65;;;10.70;77.60;;;;;;5091443;27;20054;-61
2022/03/14 09:10:50;;;;;;;47.72;4.70;;;10.70;77.60;;;;;;5081432;28;20036;-60
2022/03/14 09:13:16;;;;;;;53.90;5.32;;;10.70;77.60;;;;;;5116741;27;20026;-60
2022/03/14 09:15:41;;;;;;;29.50;4.45;;;10.70;77.60;;;;;;5078760;28;20039;-60
2022/03/14 09:18:07;;;;;;;41.70;4.70;;;10.70;77.50;;;;;;5104450;27;20047;-60
2022/03/14 09:20:38;;;;;;;41.95;4.43;;;10.90;77.60;;;;;;5093086;27;20024;-60
2022/03/14 09:23:03;;;;;;;37.00;4.68;;;10.70;77.50;;;;;;5113770;27;20031;-59
2022/03/14 09:25:29;;;;;;;37.40;4.00;;;10.80;77.60;;;;;;5101848;27;20031;-61
2022/03/14 09:27:55;;;;;;;34.67;4.47;;;10.80;77.50;;;;;;5119604;27;20023;-60
2022/03/14 09:30:20;;;;;;;43.72;5.28;;;10.80;77.40;;;;;;5088754;28;20040;-60
2022/03/14 09:32:46;;;;;;;47.33;5.65;;;10.80;77.70;;;;;;5080264;28;20572;-60
2022/03/14 09:35:13;;;;;;;44.78;6.22;;;10.80;77.60;;;;;;5094707;28;20469;-60
2022/03/14 09:37:39;;;;;;;30.75;5.25;;;10.80;77.40;;;;;;5064741;28;20016;-61
2022/03/14 09:40:06;;;;;;;32.58;4.43;;;10.80;77.50;;;;;;5079925;28;20046;-60
2022/03/14 09:42:33;;;;;;;41.03;4.90;;;10.80;77.60;;;;;;5094883;28;20090;-60
2022/03/14 09:44:59;;;;;;;49.42;5.03;;;10.90;77.60;;;;;;5076394;28;20115;-60
2022/03/14 09:47:24;;;;;;;53.55;5.00;;;10.80;77.50;;;;;;5077486;28;20126;-60
2022/03/14 09:49:54;;;;;;;62.15;6.93;;;10.80;77.50;;;;;;5084885;28;20553;-60
2022/03/14 09:52:20;;;;;;;63.55;7.30;;;10.90;77.60;;;;;;5080495;28;20723;-61
2022/03/14 09:54:45;;;;;;;80.50;8.43;;;10.90;77.90;;;;;;5079587;28;20024;-60
2022/03/14 09:57:11;;;;;;;52.15;6.93;;;10.90;77.70;;;;;;5085326;28;20109;-60
2022/03/14 09:59:36;;;;;;;46.50;5.47;;;10.90;77.90;;;;;;5060781;28;20036;-61
2022/03/14 10:02:02;;;;;;;44.65;5.25;;;10.90;77.40;;;;;;5062204;28;20030;-60
2022/03/14 10:04:28;;;;;;;37.47;4.95;;;11.00;77.50;;;;;;5080839;28;20043;-60
2022/03/14 10:06:53;;;;;;;56.67;6.57;;;11.00;77.80;;;;;;5068772;28;20413;-60
2022/03/14 10:09:19;;;;;;;75.35;8.65;;;11.00;77.70;;;;;;5096496;28;20131;-60
2022/03/14 10:11:45;;;;;;;67.35;6.90;;;11.00;77.90;;;;;;5096650;28;20045;-60
2022/03/14 10:14:14;;;;;;;80.35;9.70;;;11.00;78.10;;;;;;5096128;28;20127;-60
2022/03/14 10:16:39;;;;;;;90.53;9.07;;;11.10;78.20;;;;;;5080923;28;20055;-60
2022/03/14 10:19:10;;;;;;;89.95;7.93;;;11.10;78.10;;;;;;5076561;28;20100;-60
2022/03/14 10:21:37;;;;;;;88.25;8.45;;;11.20;78.00;;;;;;5082374;28;20024;-60
2022/03/14 10:24:10;;;;;;;60.63;7.68;;;11.10;77.90;;;;;;5066188;28;20031;-60
2022/03/14 10:26:37;;;;;;;60.80;6.97;;;11.10;77.80;;;;;;5083459;28;20044;-60
2022/03/14 10:29:03;;;;;;;52.35;6.32;;;11.20;78.00;;;;;;5080107;28;20028;-67
2022/03/14 10:31:42;;;;;;;45.85;5.32;;;11.20;78.00;;;;;;5062093;28;20047;-63
2022/03/14 10:34:13;;;;;;;49.17;5.70;;;11.20;77.80;;;;;;5074393;28;20099;-61
2022/03/14 10:36:46;;;;;;;64.72;7.38;;;11.20;77.60;;;;;;5061416;28;21965;-60
2022/03/14 10:39:16;;;;;;;89.40;9.48;;;11.20;77.60;;;;;;5078659;28;20466;-63
2022/03/14 10:41:46;;;;;;;128.32;11.40;;;11.20;78.20;;;;;;5083502;28;20036;-61
2022/03/14 10:44:23;;;;;;;51.97;7.25;;;11.30;78.40;;;;;;5069624;28;20039;-60
2022/03/14 10:46:48;;;;;;;65.22;7.75;;;11.30;78.30;;;;;;5066953;28;20027;-60
2022/03/14 10:49:15;;;;;;;53.92;7.20;;;11.30;78.10;;;;;;5094487;28;20434;-60
2022/03/14 10:51:53;;;;;;;78.65;9.57;;;11.30;78.10;;;;;;5075379;28;20785;-60
2022/03/14 10:54:18;;;;;;;73.88;10.40;;;11.40;78.10;;;;;;5074054;28;20020;-62
2022/03/14 10:57:05;;;;;;;60.35;9.13;;;11.30;78.60;;;;;;5075343;28;21282;-60
2022/03/14 10:59:43;;;;;;;51.05;7.88;;;11.40;78.00;;;;;;5069790;28;20032;-60
2022/03/14 11:02:12;;;;;;;129.38;11.70;;;11.40;77.90;;;;;;5095592;28;20061;-59
2022/03/14 11:04:55;;;;;;;101.15;11.50;;;11.40;77.80;;;;;;5076842;28;20055;-59
2022/03/14 11:07:24;;;;;;;96.75;11.88;;;11.50;77.90;;;;;;5080110;28;20098;-60
2022/03/14 11:09:56;;;;;;;111.05;13.65;;;11.50;77.80;;;;;;5079352;28;20111;-60
2022/03/14 11:12:22;;;;;;;96.90;12.50;;;11.50;77.80;;;;;;5060807;28;20073;-60
2022/03/14 11:15:01;;;;;;;87.75;9.85;;;11.50;77.80;;;;;;5081948;28;20032;-62
2022/03/14 11:17:31;;;;;;;110.35;12.80;;;11.50;77.80;;;;;;5076058;28;20028;-60
2022/03/14 11:19:58;;;;;;;114.40;13.10;;;11.60;77.80;;;;;;5048092;28;20047;-60
2022/03/14 11:22:26;;;;;;;91.03;12.65;;;11.60;77.70;;;;;;5065170;28;20016;-60
2022/03/14 11:24:53;;;;;;;104.75;12.32;;;11.60;77.80;;;;;;5058113;28;20020;-60
2022/03/14 11:27:19;;;;;;;89.20;10.73;;;11.70;77.80;;;;;;5076405;28;20024;-60
2022/03/14 11:29:46;;;;;;;102.28;12.57;;;11.70;77.70;;;;;;5072523;28;20027;-60
2022/03/14 11:32:11;;;;;;;69.32;10.23;;;11.70;77.60;;;;;;5079795;28;20028;-61
2022/03/14 11:34:37;;;;;;;85.28;9.88;;;11.70;77.30;;;;;;5079850;28;20039;-60
2022/03/14 11:37:03;;;;;;;83.68;10.25;;;11.70;77.20;;;;;;5064097;28;20544;-60
2022/03/14 11:39:28;;;;;;;115.20;12.05;;;11.80;77.20;;;;;;5101260;28;20043;-61
2022/03/14 11:41:54;;;;;;;100.63;12.43;;;11.80;77.10;;;;;;5062731;28;20036;-60
2022/03/14 11:44:20;;;;;;;93.78;11.52;;;11.80;77.10;;;;;;5102186;28;20035;-60
2022/03/14 11:46:46;;;;;;;103.82;10.93;;;11.80;77.00;;;;;;5055288;28;20034;-60
2022/03/14 11:49:15;;;;;;;103.05;11.52;;;11.80;76.90;;;;;;5085855;28;20073;-60
2022/03/14 11:51:41;;;;;;;76.65;9.48;;;11.90;76.90;;;;;;5064553;28;20048;-60
2022/03/14 11:54:14;;;;;;;94.60;10.57;;;11.90;76.90;;;;;;5099516;28;20555;-60
2022/03/14 11:56:56;;;;;;;87.05;11.60;;;12.00;76.90;;;;;;5046727;28;20101;-60
2022/03/14 11:59:26;;;;;;;110.18;11.50;;;12.10;76.60;;;;;;5078294;28;20044;-60
2022/03/14 12:01:51;;;;;;;86.82;10.20;;;12.10;76.40;;;;;;5063833;28;20043;-60
2022/03/14 12:04:30;;;;;;;114.10;12.10;;;12.20;76.30;;;;;;5099978;28;20759;-60
2022/03/14 12:06:57;;;;;;;120.88;15.13;;;12.20;76.30;;;;;;5100168;28;20039;-60
2022/03/14 12:09:25;;;;;;;133.95;16.65;;;12.30;76.30;;;;;;5099373;28;20031;-59
2022/03/14 12:11:54;;;;;;;103.00;12.13;;;12.30;76.30;;;;;;5097803;28;20039;-59
2022/03/14 12:14:43;;;;;;;95.32;10.38;;;12.40;76.20;;;;;;5078026;28;20111;-60
2022/03/14 12:17:14;;;;;;;118.13;12.73;;;12.40;75.90;;;;;;5099101;28;20028;-60
2022/03/14 12:19:49;;;;;;;98.40;12.60;;;12.40;76.00;;;;;;5099626;28;20039;-60
2022/03/14 12:22:27;;;;;;;103.03;11.50;;;12.40;75.50;;;;;;5077028;28;20040;-60
2022/03/14 12:24:53;;;;;;;96.80;11.23;;;12.50;75.50;;;;;;5094656;28;20040;-60
2022/03/14 12:27:33;;;;;;;89.20;11.35;;;12.50;75.20;;;;;;5083808;28;20043;-60
2022/03/14 12:29:59;;;;;;;86.97;11.13;;;12.60;75.10;;;;;;5103779;27;20170;-61
2022/03/14 12:32:53;;;;;;;91.50;11.88;;;12.60;74.80;;;;;;5095042;27;20027;-60
2022/03/14 12:35:22;;;;;;;83.13;10.05;;;12.60;74.90;;;;;;5114418;27;20111;-60
2022/03/14 12:37:49;;;;;;;92.70;12.13;;;12.60;75.00;;;;;;5123585;27;20015;-59